Time;durP1;ratioP1;P1;durP2;ratioP2;P2;SDS_P1;SDS_P2;PMS_P1;PMS_P2;Temp;Humidity;BMP_temperature;BMP_pressure;BME280_temperature;BME280_humidity;BME280_pressure;Samples;Min_cycle;Max_cycle;Signal;HPM_P1;HPM_P2
2023/11/16 00:01:09;;;;;;;9.90;3.50;;;9.60;99.90;;;;;;4977297;28;20461;-68
2023/11/16 00:03:38;;;;;;;12.30;3.40;;;9.60;99.90;;;;;;4977179;28;20453;-68
2023/11/16 00:06:05;;;;;;;8.33;3.30;;;9.60;99.90;;;;;;4975563;28;20444;-68
2023/11/16 00:08:35;;;;;;;8.60;2.40;;;9.60;99.90;;;;;;4975804;28;20516;-68
2023/11/16 00:11:02;;;;;;;12.77;3.03;;;9.60;99.90;;;;;;4974907;28;20467;-68
2023/11/16 00:13:29;;;;;;;7.67;2.50;;;9.60;99.90;;;;;;4976399;28;20453;-68
2023/11/16 00:16:04;;;;;;;10.30;2.80;;;9.60;99.90;;;;;;4975944;28;20452;-68
2023/11/16 00:18:34;;;;;;;12.20;3.47;;;9.50;99.90;;;;;;4976370;28;20480;-68
2023/11/16 00:21:01;;;;;;;8.07;3.10;;;9.50;99.90;;;;;;4976251;28;20456;-68
2023/11/16 00:23:28;;;;;;;9.50;3.17;;;9.50;99.90;;;;;;4976221;28;20460;-68
2023/11/16 00:25:55;;;;;;;6.37;2.60;;;9.50;99.90;;;;;;4975393;28;20947;-68
2023/11/16 00:28:24;;;;;;;11.20;3.13;;;9.50;99.90;;;;;;4974274;28;21073;-68
2023/11/16 00:30:52;;;;;;;10.60;3.07;;;9.50;99.90;;;;;;4975901;28;20469;-68
2023/11/16 00:33:20;;;;;;;16.77;3.60;;;9.50;99.90;;;;;;4975588;28;20449;-68
2023/11/16 00:35:47;;;;;;;14.93;3.03;;;9.50;99.90;;;;;;4975600;28;20453;-68
2023/11/16 00:38:15;;;;;;;13.17;3.40;;;9.50;99.90;;;;;;4975775;28;20453;-68
2023/11/16 00:40:42;;;;;;;9.30;2.73;;;9.50;99.90;;;;;;4975219;28;20527;-68
2023/11/16 00:43:11;;;;;;;13.80;3.67;;;9.50;99.90;;;;;;4975722;28;20441;-68
2023/11/16 00:45:38;;;;;;;17.23;3.10;;;9.50;99.90;;;;;;4975086;28;20973;-68
2023/11/16 00:48:08;;;;;;;8.20;2.93;;;9.50;99.90;;;;;;4975382;28;20580;-68
2023/11/16 00:50:38;;;;;;;13.20;2.63;;;9.50;99.90;;;;;;4975049;28;20480;-68
2023/11/16 00:53:06;;;;;;;8.50;2.83;;;9.50;99.90;;;;;;4975695;28;20453;-68
2023/11/16 00:55:34;;;;;;;11.98;3.45;;;9.60;99.90;;;;;;4974635;28;20442;-68
2023/11/16 00:58:05;;;;;;;13.50;3.17;;;9.70;99.90;;;;;;4975689;28;20202;-68
2023/11/16 01:00:32;;;;;;;13.37;3.40;;;9.70;99.90;;;;;;4979919;28;20517;-68
2023/11/16 01:02:59;;;;;;;7.93;3.30;;;9.60;99.90;;;;;;4978811;28;20461;-69
2023/11/16 01:05:28;;;;;;;10.90;3.23;;;9.70;99.90;;;;;;4976205;28;20536;-68
2023/11/16 01:07:56;;;;;;;12.40;3.47;;;9.60;99.90;;;;;;4974347;28;20540;-68
2023/11/16 01:10:29;;;;;;;12.30;3.87;;;9.70;99.90;;;;;;4975293;28;20484;-68
2023/11/16 01:12:56;;;;;;;11.73;2.50;;;9.70;99.90;;;;;;4975394;28;20436;-68
2023/11/16 01:15:25;;;;;;;13.20;3.47;;;9.70;99.90;;;;;;4975367;28;20448;-68
2023/11/16 01:17:52;;;;;;;9.53;3.03;;;9.70;99.90;;;;;;4974949;28;20455;-68
2023/11/16 01:20:22;;;;;;;12.27;4.83;;;9.60;99.90;;;;;;4975187;28;20475;-68
2023/11/16 01:23:01;;;;;;;8.33;3.60;;;9.60;99.90;;;;;;4975624;28;20430;-68
2023/11/16 01:25:32;;;;;;;7.73;3.33;;;9.70;99.90;;;;;;4975562;28;20433;-68
2023/11/16 01:28:00;;;;;;;7.87;3.40;;;9.60;99.90;;;;;;4975496;28;20477;-68
2023/11/16 01:30:37;;;;;;;11.80;2.50;;;9.60;99.90;;;;;;4973700;28;20997;-69
2023/11/16 01:33:08;;;;;;;5.93;2.63;;;9.70;99.90;;;;;;4976113;28;20449;-69
2023/11/16 01:35:36;;;;;;;7.87;3.53;;;9.60;99.90;;;;;;4974669;28;20525;-69
2023/11/16 01:38:05;;;;;;;10.93;3.20;;;9.70;99.90;;;;;;4975401;28;20449;-69
2023/11/16 01:40:40;;;;;;;15.30;3.70;;;9.70;99.90;;;;;;4974988;28;20469;-69
2023/11/16 01:43:08;;;;;;;12.80;3.20;;;9.70;99.90;;;;;;4975893;28;20976;-69
2023/11/16 01:45:36;;;;;;;7.93;2.97;;;9.70;99.90;;;;;;4974917;28;20453;-69
2023/11/16 01:48:06;;;;;;;11.60;2.87;;;9.70;99.90;;;;;;4974910;28;20481;-69
2023/11/16 01:50:34;;;;;;;9.73;2.70;;;9.70;99.90;;;;;;4974983;28;20472;-69
2023/11/16 01:53:10;;;;;;;7.77;2.57;;;9.70;99.90;;;;;;4978757;28;20448;-69
2023/11/16 01:55:41;;;;;;;9.03;2.33;;;9.70;99.90;;;;;;4982592;28;20811;-68
2023/11/16 01:58:10;;;;;;;12.60;3.70;;;9.70;99.90;;;;;;4994686;28;20523;-69
2023/11/16 02:00:42;;;;;;;6.63;2.63;;;9.70;99.90;;;;;;4984684;28;20897;-69
2023/11/16 02:03:10;;;;;;;10.10;3.00;;;9.60;99.90;;;;;;4981948;28;20433;-68
2023/11/16 02:05:38;;;;;;;12.90;2.97;;;9.60;99.90;;;;;;4980403;28;20452;-68
2023/11/16 02:08:09;;;;;;;9.23;2.60;;;9.60;99.90;;;;;;4979510;28;20484;-68
2023/11/16 02:10:42;;;;;;;9.70;3.50;;;9.60;99.90;;;;;;4978453;28;20589;-68
2023/11/16 02:13:18;;;;;;;11.37;3.13;;;9.60;99.90;;;;;;4979079;28;20834;-69
2023/11/16 02:15:44;;;;;;;12.07;3.43;;;9.60;99.90;;;;;;4978699;28;20433;-69
2023/11/16 02:18:14;;;;;;;6.87;2.77;;;9.70;99.90;;;;;;4978283;28;20452;-69
2023/11/16 02:20:42;;;;;;;9.80;2.43;;;9.60;99.90;;;;;;4978105;28;20469;-68
2023/11/16 02:23:11;;;;;;;11.17;3.63;;;9.60;99.90;;;;;;4977802;28;20468;-69
2023/11/16 02:25:46;;;;;;;10.73;3.07;;;9.60;99.90;;;;;;4980661;28;20500;-69
2023/11/16 02:28:13;;;;;;;9.63;3.23;;;9.60;99.90;;;;;;4979585;28;20861;-69
2023/11/16 02:30:40;;;;;;;11.10;3.27;;;9.70;99.90;;;;;;4979031;28;20524;-69
2023/11/16 02:33:09;;;;;;;12.90;3.53;;;9.60;99.90;;;;;;4978819;28;20445;-68
2023/11/16 02:35:37;;;;;;;10.70;3.10;;;9.60;99.90;;;;;;4978189;28;20519;-69
2023/11/16 02:38:06;;;;;;;15.20;3.27;;;9.70;99.90;;;;;;4976741;28;21027;-69
2023/11/16 02:40:36;;;;;;;8.90;2.97;;;9.70;99.90;;;;;;4976446;28;20476;-69
2023/11/16 02:43:03;;;;;;;10.20;3.43;;;9.70;99.90;;;;;;4977869;28;20438;-69
2023/11/16 02:45:35;;;;;;;7.70;2.97;;;9.70;99.90;;;;;;4977285;28;20452;-68
2023/11/16 02:48:03;;;;;;;13.00;3.13;;;9.70;99.90;;;;;;4977112;28;20478;-69
2023/11/16 02:50:31;;;;;;;5.97;2.80;;;9.70;99.90;;;;;;4977343;28;21061;-69
2023/11/16 02:53:01;;;;;;;10.23;3.00;;;9.70;99.90;;;;;;4977314;28;20954;-68
2023/11/16 02:55:29;;;;;;;10.60;2.80;;;9.70;99.90;;;;;;4977380;28;20473;-68
2023/11/16 02:57:57;;;;;;;13.27;3.50;;;9.70;99.90;;;;;;4977668;28;20553;-68
2023/11/16 03:00:26;;;;;;;11.37;2.53;;;9.70;99.90;;;;;;4977225;28;20994;-68
2023/11/16 03:02:53;;;;;;;9.27;2.70;;;9.70;99.90;;;;;;4977283;28;20445;-68
2023/11/16 03:05:21;;;;;;;11.40;2.80;;;9.70;99.90;;;;;;4977355;28;20548;-68
2023/11/16 03:07:50;;;;;;;9.90;2.93;;;9.70;99.90;;;;;;4976839;28;20481;-68
2023/11/16 03:10:17;;;;;;;11.37;3.07;;;9.70;99.90;;;;;;4976599;28;20523;-68
2023/11/16 03:12:45;;;;;;;7.90;2.90;;;9.70;99.90;;;;;;4977576;28;20464;-69
2023/11/16 03:15:15;;;;;;;10.80;3.50;;;9.60;99.90;;;;;;4975966;28;20485;-68
2023/11/16 03:17:44;;;;;;;8.97;3.60;;;9.70;99.90;;;;;;4977116;28;20449;-68
2023/11/16 03:20:12;;;;;;;15.77;3.30;;;9.70;99.90;;;;;;4976907;28;20480;-69
2023/11/16 03:22:41;;;;;;;13.13;3.10;;;9.70;99.90;;;;;;4976771;28;20799;-69
2023/11/16 03:25:08;;;;;;;9.23;2.47;;;9.70;99.90;;;;;;4977430;28;20449;-69
2023/11/16 03:27:35;;;;;;;5.90;2.20;;;9.70;99.90;;;;;;4976812;28;20623;-69
2023/11/16 03:30:03;;;;;;;7.33;2.40;;;9.80;99.90;;;;;;4977051;28;20472;-69
2023/11/16 03:32:33;;;;;;;7.43;2.50;;;9.70;99.90;;;;;;4960055;28;20445;-69
2023/11/16 03:35:00;;;;;;;5.70;2.70;;;9.70;99.90;;;;;;4976602;28;20460;-69
2023/11/16 03:37:31;;;;;;;9.17;2.60;;;9.70;99.90;;;;;;4976330;28;20969;-69
2023/11/16 03:39:59;;;;;;;11.47;3.17;;;9.70;99.90;;;;;;4980695;28;20473;-69
2023/11/16 03:42:26;;;;;;;8.07;3.00;;;9.70;99.90;;;;;;4981019;28;20814;-69
2023/11/16 03:44:53;;;;;;;8.10;2.73;;;9.70;99.90;;;;;;4978567;28;20852;-69
2023/11/16 03:47:20;;;;;;;6.87;3.27;;;9.70;99.90;;;;;;4977319;28;20446;-69
2023/11/16 03:49:48;;;;;;;7.50;3.23;;;9.70;99.90;;;;;;4976748;28;20485;-69
2023/11/16 03:52:18;;;;;;;7.83;2.47;;;9.80;99.90;;;;;;4976812;28;20460;-69
2023/11/16 03:54:45;;;;;;;5.77;2.40;;;9.80;99.90;;;;;;4976462;28;20456;-69
2023/11/16 03:57:18;;;;;;;9.47;3.23;;;9.80;99.90;;;;;;4975807;28;20974;-69
2023/11/16 03:59:50;;;;;;;7.00;2.73;;;9.80;99.90;;;;;;4976036;28;20469;-69
2023/11/16 04:02:19;;;;;;;11.57;4.20;;;9.80;99.90;;;;;;4976180;28;20492;-69
2023/11/16 04:04:47;;;;;;;10.53;3.00;;;9.80;99.90;;;;;;4976167;28;20469;-69
2023/11/16 04:07:16;;;;;;;12.60;3.73;;;9.80;99.90;;;;;;4976044;28;20536;-69
2023/11/16 04:09:42;;;;;;;6.87;2.70;;;9.70;99.90;;;;;;4975564;28;21056;-69
2023/11/16 04:12:09;;;;;;;7.87;2.60;;;9.70;99.90;;;;;;4975663;28;20453;-69
2023/11/16 04:14:40;;;;;;;9.33;2.67;;;9.70;99.90;;;;;;4986738;28;20453;-69
2023/11/16 04:17:09;;;;;;;10.40;2.40;;;9.70;99.90;;;;;;4982907;28;20437;-69
2023/11/16 04:19:36;;;;;;;8.70;2.87;;;9.70;99.90;;;;;;4979771;28;20469;-68
2023/11/16 04:22:07;;;;;;;9.13;2.80;;;9.70;99.90;;;;;;4976871;28;20445;-69
2023/11/16 04:24:41;;;;;;;8.07;3.00;;;9.70;99.90;;;;;;4976529;28;20464;-68
2023/11/16 04:27:09;;;;;;;9.20;3.07;;;9.70;99.90;;;;;;4976089;28;20437;-69
2023/11/16 04:29:35;;;;;;;9.67;2.90;;;9.60;99.90;;;;;;4975644;28;20492;-69
2023/11/16 04:32:02;;;;;;;10.60;3.00;;;9.60;99.90;;;;;;4975965;28;20449;-69
2023/11/16 04:34:32;;;;;;;7.40;3.23;;;9.60;99.90;;;;;;4975556;28;20457;-69
2023/11/16 04:37:04;;;;;;;4.40;2.03;;;9.60;99.90;;;;;;4975733;28;20437;-69
2023/11/16 04:39:33;;;;;;;11.57;2.90;;;9.60;99.90;;;;;;4974383;28;20465;-69
2023/11/16 04:42:03;;;;;;;7.80;2.97;;;9.60;99.90;;;;;;4975602;28;20476;-69
2023/11/16 04:44:32;;;;;;;13.40;3.07;;;9.60;99.90;;;;;;4975494;28;20444;-69
2023/11/16 04:47:07;;;;;;;7.17;2.80;;;9.50;99.90;;;;;;4973388;28;20822;-69
2023/11/16 04:49:34;;;;;;;8.97;3.40;;;9.50;99.90;;;;;;4974924;28;20488;-69
2023/11/16 04:52:00;;;;;;;8.50;2.63;;;9.60;99.90;;;;;;4975127;28;20977;-68
2023/11/16 04:54:28;;;;;;;10.30;3.43;;;9.60;99.90;;;;;;4975118;28;20456;-68
2023/11/16 04:56:55;;;;;;;9.70;2.73;;;9.60;99.90;;;;;;4975470;28;20467;-68
2023/11/16 04:59:23;;;;;;;11.67;2.87;;;9.60;99.90;;;;;;4975498;28;20469;-69
2023/11/16 05:01:52;;;;;;;12.27;2.93;;;9.70;99.90;;;;;;4975265;28;20449;-68
2023/11/16 05:04:18;;;;;;;12.13;2.77;;;9.60;99.90;;;;;;4975279;28;20889;-68
2023/11/16 05:06:45;;;;;;;9.50;2.63;;;9.60;99.90;;;;;;4975102;28;20454;-68
2023/11/16 05:09:13;;;;;;;5.57;2.00;;;9.60;99.90;;;;;;4975351;28;20499;-69
2023/11/16 05:11:40;;;;;;;12.37;3.20;;;9.60;99.90;;;;;;4975022;28;20501;-69
2023/11/16 05:14:06;;;;;;;6.20;2.17;;;9.70;99.90;;;;;;4975024;28;20460;-68
2023/11/16 05:16:37;;;;;;;8.10;2.97;;;9.60;99.90;;;;;;4975029;28;20452;-68
2023/11/16 05:19:03;;;;;;;17.60;3.40;;;9.60;99.90;;;;;;4974648;28;20978;-68
2023/11/16 05:21:30;;;;;;;8.20;2.50;;;9.60;99.90;;;;;;4974920;28;20456;-68
2023/11/16 05:23:57;;;;;;;10.17;3.30;;;9.60;99.90;;;;;;4975006;28;20499;-68
2023/11/16 05:26:25;;;;;;;8.03;2.43;;;9.70;99.90;;;;;;4976937;28;20950;-68
2023/11/16 05:28:55;;;;;;;9.60;2.70;;;9.70;99.90;;;;;;4977542;28;21040;-68
2023/11/16 05:31:21;;;;;;;7.70;2.37;;;9.60;99.90;;;;;;4978915;28;20453;-68
2023/11/16 05:33:49;;;;;;;6.07;2.20;;;9.60;99.90;;;;;;4978831;28;20452;-68
2023/11/16 05:36:16;;;;;;;5.70;2.53;;;9.70;99.90;;;;;;4978751;28;20449;-68
2023/11/16 05:38:44;;;;;;;7.27;2.57;;;9.60;99.90;;;;;;4978799;28;20441;-68
2023/11/16 05:41:13;;;;;;;7.40;2.60;;;9.60;99.90;;;;;;4978703;28;20456;-69
2023/11/16 05:43:40;;;;;;;7.80;2.70;;;9.60;99.90;;;;;;4977354;28;20504;-68
2023/11/16 05:46:08;;;;;;;14.00;3.40;;;9.60;99.90;;;;;;4977028;28;20993;-68
2023/11/16 05:48:39;;;;;;;7.90;3.50;;;9.70;99.90;;;;;;4979267;28;20481;-68
2023/11/16 05:51:07;;;;;;;11.80;2.90;;;9.60;99.90;;;;;;4978288;28;20437;-68
2023/11/16 05:53:35;;;;;;;10.80;3.00;;;9.70;99.90;;;;;;4977877;28;20461;-68
2023/11/16 05:56:03;;;;;;;6.17;2.70;;;9.70;99.90;;;;;;4978166;28;20492;-68
2023/11/16 05:58:29;;;;;;;10.40;3.63;;;9.70;99.90;;;;;;4978437;28;20453;-68
2023/11/16 06:00:56;;;;;;;8.80;3.27;;;9.70;99.90;;;;;;4978038;28;20468;-68
2023/11/16 06:03:27;;;;;;;5.10;2.50;;;9.70;99.90;;;;;;4977077;28;20464;-68
2023/11/16 06:05:53;;;;;;;6.73;3.20;;;9.70;99.90;;;;;;4978222;28;21030;-68
2023/11/16 06:08:22;;;;;;;4.27;2.63;;;9.70;99.90;;;;;;4976816;28;20480;-68
2023/11/16 06:10:51;;;;;;;14.83;2.97;;;9.70;99.90;;;;;;4977983;28;20561;-68
2023/11/16 06:13:22;;;;;;;8.33;2.70;;;9.70;99.90;;;;;;4977897;28;20467;-68
2023/11/16 06:15:48;;;;;;;9.97;2.77;;;9.60;99.90;;;;;;4977928;28;20441;-68
2023/11/16 06:18:16;;;;;;;6.17;2.87;;;9.60;99.90;;;;;;4978031;28;20463;-68
2023/11/16 06:20:46;;;;;;;8.33;2.70;;;9.60;99.90;;;;;;4982752;28;20461;-68
2023/11/16 06:23:13;;;;;;;8.53;2.60;;;9.70;99.90;;;;;;4981166;28;20440;-68
2023/11/16 06:25:42;;;;;;;7.00;3.00;;;9.70;99.90;;;;;;4982729;28;20448;-69
2023/11/16 06:28:10;;;;;;;9.30;2.47;;;9.70;99.90;;;;;;4985106;28;20446;-68
2023/11/16 06:30:38;;;;;;;10.63;3.20;;;9.70;99.90;;;;;;4993227;28;20516;-68
2023/11/16 06:33:05;;;;;;;6.30;2.63;;;9.70;99.90;;;;;;4986739;28;20461;-68
2023/11/16 06:35:32;;;;;;;5.67;2.40;;;9.70;99.90;;;;;;4983505;28;20445;-68
2023/11/16 06:38:01;;;;;;;7.40;2.70;;;9.70;99.90;;;;;;4981125;28;20453;-68
2023/11/16 06:40:28;;;;;;;14.53;4.33;;;9.70;99.90;;;;;;4981371;28;20468;-68
2023/11/16 06:42:56;;;;;;;13.33;3.53;;;9.70;99.90;;;;;;4980941;28;21007;-68
2023/11/16 06:45:26;;;;;;;10.83;3.10;;;9.70;99.90;;;;;;4980231;28;20445;-68
2023/11/16 06:47:53;;;;;;;10.23;2.93;;;9.80;99.90;;;;;;4980287;28;20481;-68
2023/11/16 06:50:20;;;;;;;9.20;3.27;;;9.80;99.90;;;;;;4962260;28;20489;-68
2023/11/16 06:52:48;;;;;;;8.47;3.60;;;9.80;99.90;;;;;;4979501;28;20876;-68
2023/11/16 06:55:16;;;;;;;8.70;3.17;;;9.80;99.90;;;;;;4978603;28;20453;-68
2023/11/16 06:57:44;;;;;;;13.80;4.17;;;9.80;99.90;;;;;;4977393;28;20504;-68
2023/11/16 07:00:21;;;;;;;11.17;3.27;;;9.90;99.90;;;;;;4978285;28;20465;-68
2023/11/16 07:02:48;;;;;;;11.20;3.93;;;9.90;99.90;;;;;;4978118;28;20496;-68
2023/11/16 07:05:15;;;;;;;13.03;2.93;;;9.90;99.90;;;;;;4977611;28;20475;-68
2023/11/16 07:07:42;;;;;;;7.03;2.80;;;9.90;99.90;;;;;;4977690;28;20934;-68
2023/11/16 07:10:10;;;;;;;14.10;3.30;;;9.90;99.90;;;;;;4978241;28;20485;-68
2023/11/16 07:12:40;;;;;;;6.97;3.33;;;9.90;99.90;;;;;;4977337;28;20877;-68
2023/11/16 07:15:08;;;;;;;13.23;3.27;;;10.00;99.90;;;;;;4977286;28;20464;-68
2023/11/16 07:17:37;;;;;;;7.73;2.40;;;10.00;99.90;;;;;;4977325;28;20437;-68
2023/11/16 07:20:09;;;;;;;8.37;2.80;;;10.00;99.90;;;;;;4977504;28;20505;-68
2023/11/16 07:22:36;;;;;;;8.53;2.73;;;10.10;99.90;;;;;;4976994;28;20445;-68
2023/11/16 07:25:07;;;;;;;5.80;2.93;;;10.10;99.90;;;;;;4977221;28;20453;-68
2023/11/16 07:27:36;;;;;;;6.43;2.43;;;10.10;99.90;;;;;;4976911;28;20524;-68
2023/11/16 07:30:03;;;;;;;6.57;2.90;;;10.10;99.90;;;;;;4976857;28;20493;-68
2023/11/16 07:32:31;;;;;;;10.47;2.60;;;10.20;99.90;;;;;;4977256;28;20822;-68
2023/11/16 07:34:59;;;;;;;10.57;2.97;;;10.20;99.90;;;;;;4977082;28;20496;-68
2023/11/16 07:37:27;;;;;;;8.47;2.63;;;10.20;99.90;;;;;;4976498;28;20794;-68
2023/11/16 07:39:55;;;;;;;11.00;2.57;;;10.20;99.90;;;;;;4976490;28;20469;-68
2023/11/16 07:42:22;;;;;;;4.60;2.60;;;10.30;99.90;;;;;;4975472;28;20460;-68
2023/11/16 07:44:51;;;;;;;10.30;2.93;;;10.30;99.90;;;;;;4976304;28;20456;-68
2023/11/16 07:47:18;;;;;;;9.23;2.97;;;10.30;99.90;;;;;;4976615;28;20552;-68
2023/11/16 07:49:52;;;;;;;5.10;2.77;;;10.40;99.90;;;;;;4975215;28;20572;-68
2023/11/16 07:52:21;;;;;;;7.20;2.70;;;10.40;99.90;;;;;;4976525;28;20441;-68
2023/11/16 07:54:48;;;;;;;8.43;2.70;;;10.40;99.90;;;;;;4975853;28;20457;-68
2023/11/16 07:57:22;;;;;;;7.20;2.70;;;10.40;99.90;;;;;;4974882;28;20511;-68
2023/11/16 07:59:49;;;;;;;7.63;3.30;;;10.40;99.90;;;;;;4975048;28;20840;-68
2023/11/16 08:02:17;;;;;;;6.00;2.37;;;10.40;99.90;;;;;;4976287;28;20456;-68
2023/11/16 08:04:43;;;;;;;8.60;3.10;;;10.50;99.90;;;;;;4976423;28;20457;-68
2023/11/16 08:07:11;;;;;;;7.63;2.40;;;10.50;99.90;;;;;;4976200;28;20484;-68
2023/11/16 08:09:54;;;;;;;6.30;2.57;;;10.50;99.90;;;;;;4974510;28;20576;-68
2023/11/16 08:12:22;;;;;;;8.00;2.80;;;10.50;99.90;;;;;;4975491;28;20445;-68
2023/11/16 08:14:51;;;;;;;7.53;2.60;;;10.60;99.90;;;;;;4975866;28;20456;-68
2023/11/16 08:17:19;;;;;;;7.10;2.33;;;10.60;99.90;;;;;;4975616;28;20805;-68
2023/11/16 08:19:46;;;;;;;10.10;2.83;;;10.70;99.90;;;;;;4975909;28;20465;-68
2023/11/16 08:22:13;;;;;;;6.13;2.40;;;10.80;99.90;;;;;;4975118;28;20449;-68
2023/11/16 08:24:43;;;;;;;14.30;2.73;;;10.90;99.90;;;;;;4974790;28;20869;-68
2023/11/16 08:27:11;;;;;;;14.43;3.70;;;11.00;99.90;;;;;;4974489;28;20445;-68
2023/11/16 08:29:38;;;;;;;15.60;3.27;;;11.10;99.90;;;;;;4973798;28;20511;-68
2023/11/16 08:32:06;;;;;;;8.87;3.07;;;11.20;99.80;;;;;;4975377;28;20974;-68
2023/11/16 08:34:34;;;;;;;8.87;2.57;;;11.20;99.50;;;;;;4973984;28;20452;-68
2023/11/16 08:37:01;;;;;;;10.43;2.60;;;11.30;99.30;;;;;;4982250;28;20449;-68
2023/11/16 08:39:28;;;;;;;10.00;2.50;;;11.30;99.10;;;;;;4994184;28;21040;-68
2023/11/16 08:41:58;;;;;;;11.10;2.73;;;11.30;98.80;;;;;;4994418;28;20800;-68
2023/11/16 08:44:26;;;;;;;8.23;2.60;;;11.40;98.80;;;;;;4994846;28;20448;-68
2023/11/16 08:47:03;;;;;;;13.70;2.83;;;11.50;98.70;;;;;;5008687;28;20452;-68
2023/11/16 08:49:33;;;;;;;8.47;3.10;;;11.60;98.40;;;;;;4998697;28;20484;-68
2023/11/16 08:52:01;;;;;;;7.23;2.93;;;11.70;98.00;;;;;;4996459;28;20891;-68
2023/11/16 08:54:35;;;;;;;4.50;2.40;;;11.80;97.70;;;;;;4995676;28;20452;-68
2023/11/16 08:57:03;;;;;;;7.80;2.53;;;11.80;97.40;;;;;;4993706;28;20437;-68
2023/11/16 08:59:35;;;;;;;9.90;3.40;;;11.90;97.40;;;;;;4987884;28;20468;-68
2023/11/16 09:02:02;;;;;;;9.10;3.13;;;11.90;97.20;;;;;;4977032;28;20464;-68
2023/11/16 09:04:30;;;;;;;10.77;2.73;;;11.90;97.10;;;;;;4974993;28;20445;-68
2023/11/16 09:06:58;;;;;;;6.90;3.03;;;11.90;97.00;;;;;;4975705;28;20504;-68
2023/11/16 09:09:37;;;;;;;7.70;3.50;;;11.90;97.40;;;;;;4974742;28;20509;-68
2023/11/16 09:12:05;;;;;;;6.60;2.70;;;11.90;96.80;;;;;;4974844;28;20459;-68
2023/11/16 09:14:34;;;;;;;11.80;3.50;;;11.80;96.50;;;;;;4974895;28;20801;-70
2023/11/16 09:17:03;;;;;;;11.47;2.83;;;11.90;96.70;;;;;;4975299;28;20453;-69
2023/11/16 09:19:30;;;;;;;7.97;2.40;;;11.90;96.70;;;;;;4975115;28;20500;-69
2023/11/16 09:21:58;;;;;;;5.80;2.80;;;11.90;96.60;;;;;;4973743;28;20460;-68
2023/11/16 09:24:28;;;;;;;6.90;2.70;;;12.00;96.50;;;;;;4973750;28;20955;-69
2023/11/16 09:26:57;;;;;;;13.03;2.67;;;12.00;96.50;;;;;;4975184;28;20452;-69
2023/11/16 09:29:28;;;;;;;5.47;2.23;;;12.00;96.30;;;;;;4974595;28;20473;-69
2023/11/16 09:31:57;;;;;;;8.83;2.73;;;12.00;96.20;;;;;;4974718;28;20437;-69
2023/11/16 09:34:24;;;;;;;11.60;3.20;;;12.00;96.10;;;;;;4974762;28;20449;-69
2023/11/16 09:36:54;;;;;;;8.80;4.13;;;12.10;96.30;;;;;;4974354;28;20461;-69
2023/11/16 09:39:25;;;;;;;9.60;3.50;;;12.10;96.30;;;;;;4974633;28;20472;-69
2023/11/16 09:41:55;;;;;;;10.13;3.47;;;12.20;96.40;;;;;;4974794;28;20433;-68
2023/11/16 09:44:28;;;;;;;3.50;2.30;;;12.30;96.50;;;;;;4975451;28;20504;-69
2023/11/16 09:47:05;;;;;;;4.93;2.53;;;12.30;96.10;;;;;;4974647;28;20904;-68
2023/11/16 09:49:35;;;;;;;13.40;3.17;;;12.30;95.90;;;;;;4974343;28;20475;-69
2023/11/16 09:52:04;;;;;;;12.07;3.00;;;12.40;95.80;;;;;;4974210;28;20955;-69
2023/11/16 09:54:34;;;;;;;16.50;2.90;;;12.40;95.20;;;;;;4974230;28;20455;-69
2023/11/16 09:57:02;;;;;;;10.90;3.50;;;12.40;94.90;;;;;;4974907;28;20445;-69
2023/11/16 09:59:37;;;;;;;10.53;3.77;;;12.30;94.90;;;;;;4957211;28;20477;-69
2023/11/16 10:02:09;;;;;;;8.10;3.80;;;12.30;95.00;;;;;;4973207;28;20449;-69
2023/11/16 10:04:41;;;;;;;8.87;2.93;;;12.30;95.30;;;;;;4973244;28;20452;-69
2023/11/16 10:07:12;;;;;;;5.20;2.80;;;12.20;95.50;;;;;;4974388;28;20430;-69
2023/11/16 10:09:41;;;;;;;7.57;3.80;;;12.20;95.70;;;;;;4974211;28;20480;-69
2023/11/16 10:12:12;;;;;;;15.33;3.67;;;12.20;95.90;;;;;;4973983;28;20465;-69
2023/11/16 10:14:41;;;;;;;7.57;3.10;;;12.20;96.00;;;;;;4977931;28;20525;-69
2023/11/16 10:17:11;;;;;;;9.37;3.27;;;12.20;96.10;;;;;;4979879;28;20449;-69
2023/11/16 10:19:40;;;;;;;7.90;2.97;;;12.20;96.20;;;;;;4980784;28;20520;-69
2023/11/16 10:22:07;;;;;;;10.10;3.37;;;12.20;96.40;;;;;;4978413;28;20453;-69
2023/11/16 10:24:40;;;;;;;11.97;3.60;;;12.20;96.50;;;;;;4977994;28;20824;-69
2023/11/16 10:27:09;;;;;;;6.10;3.20;;;12.20;96.50;;;;;;4978142;28;20528;-69
2023/11/16 10:29:36;;;;;;;9.70;4.00;;;12.20;96.60;;;;;;4977657;28;20516;-68
2023/11/16 10:32:03;;;;;;;6.67;3.20;;;12.20;96.60;;;;;;4976688;28;20579;-68
2023/11/16 10:34:32;;;;;;;8.57;4.37;;;12.20;96.60;;;;;;4977797;28;20453;-68
2023/11/16 10:37:00;;;;;;;10.30;3.83;;;12.20;96.60;;;;;;4977592;28;20962;-69
2023/11/16 10:39:30;;;;;;;8.07;3.07;;;12.20;96.50;;;;;;4977703;28;20877;-69
2023/11/16 10:42:02;;;;;;;11.03;3.47;;;12.20;96.50;;;;;;4976975;28;20446;-68
2023/11/16 10:44:33;;;;;;;5.43;3.07;;;12.20;96.50;;;;;;4977387;28;20429;-69
2023/11/16 10:47:01;;;;;;;10.03;3.80;;;12.20;96.40;;;;;;4976324;28;20484;-68
2023/11/16 10:49:29;;;;;;;5.73;2.57;;;12.20;96.40;;;;;;4977038;28;20556;-69
2023/11/16 10:52:03;;;;;;;11.60;3.90;;;12.20;96.40;;;;;;4977080;28;20493;-68
2023/11/16 10:54:37;;;;;;;7.70;3.50;;;12.30;96.40;;;;;;4977171;28;20433;-68
2023/11/16 10:57:06;;;;;;;8.77;3.37;;;12.30;96.30;;;;;;4977005;28;20440;-69
2023/11/16 10:59:35;;;;;;;8.90;3.17;;;12.30;96.20;;;;;;4977248;28;21012;-69
2023/11/16 11:02:10;;;;;;;8.43;4.00;;;12.30;96.20;;;;;;4992666;28;20453;-69
2023/11/16 11:04:37;;;;;;;9.90;4.20;;;12.30;96.20;;;;;;4981911;28;20472;-69
2023/11/16 11:07:09;;;;;;;5.53;3.53;;;12.30;96.20;;;;;;4979241;28;20449;-69
2023/11/16 11:09:44;;;;;;;10.37;3.70;;;12.30;96.30;;;;;;4977774;28;20501;-69
2023/11/16 11:12:15;;;;;;;6.07;3.27;;;12.30;96.20;;;;;;4977511;28;20544;-69
2023/11/16 11:14:47;;;;;;;6.97;3.30;;;12.40;96.30;;;;;;4977039;28;20908;-69
2023/11/16 11:17:20;;;;;;;12.00;4.20;;;12.40;96.30;;;;;;4977102;28;20465;-69
2023/11/16 11:19:56;;;;;;;7.63;3.80;;;12.40;96.30;;;;;;4975572;28;20469;-69
2023/11/16 11:22:28;;;;;;;8.10;3.60;;;12.40;96.40;;;;;;4976820;28;20425;-69
2023/11/16 11:24:58;;;;;;;7.03;3.60;;;12.40;96.40;;;;;;4976771;28;20544;-69
2023/11/16 11:27:26;;;;;;;7.97;3.27;;;12.40;96.40;;;;;;4976367;28;20904;-68
2023/11/16 11:29:54;;;;;;;5.67;3.00;;;12.50;96.40;;;;;;4976664;28;20532;-69
2023/11/16 11:32:29;;;;;;;8.00;3.40;;;12.50;96.40;;;;;;4976470;28;20508;-69
2023/11/16 11:34:59;;;;;;;8.27;3.60;;;12.50;96.40;;;;;;4975541;28;21024;-69
2023/11/16 11:37:37;;;;;;;7.17;2.67;;;12.50;96.70;;;;;;4976311;28;20456;-69
2023/11/16 11:40:08;;;;;;;6.40;3.13;;;12.50;96.30;;;;;;4980136;28;20565;-69
2023/11/16 11:42:35;;;;;;;3.63;2.20;;;12.40;96.10;;;;;;4979884;28;20429;-69
2023/11/16 11:45:04;;;;;;;8.63;2.60;;;12.40;96.10;;;;;;4976011;28;20547;-69
2023/11/16 11:47:32;;;;;;;3.23;2.13;;;12.40;96.10;;;;;;4976738;28;20496;-69
2023/11/16 11:50:01;;;;;;;9.23;2.87;;;12.40;96.10;;;;;;4976252;28;20466;-69
2023/11/16 11:52:30;;;;;;;9.53;4.60;;;12.40;96.10;;;;;;4976089;28;20488;-69
2023/11/16 11:54:58;;;;;;;7.43;4.00;;;12.40;96.10;;;;;;4976175;28;20480;-69
2023/11/16 11:57:26;;;;;;;10.00;4.40;;;12.40;96.10;;;;;;4976040;28;20457;-69
2023/11/16 11:59:56;;;;;;;6.23;2.80;;;12.40;96.10;;;;;;4976636;28;20560;-69
2023/11/16 12:02:23;;;;;;;6.67;3.20;;;12.40;96.10;;;;;;4975949;28;20504;-69
2023/11/16 12:04:50;;;;;;;14.83;3.43;;;12.40;96.00;;;;;;4976462;28;20450;-69
2023/11/16 12:07:17;;;;;;;8.40;3.00;;;12.40;96.10;;;;;;4975893;28;20540;-69
2023/11/16 12:09:49;;;;;;;10.70;4.40;;;12.30;96.00;;;;;;4975560;28;20846;-69
2023/11/16 12:12:19;;;;;;;4.60;2.63;;;12.40;96.10;;;;;;4975563;28;20493;-69
2023/11/16 12:14:48;;;;;;;5.87;3.30;;;12.30;96.00;;;;;;4976589;28;20540;-69
2023/11/16 12:17:15;;;;;;;5.90;3.00;;;12.30;96.10;;;;;;4975257;28;20453;-69
2023/11/16 12:19:47;;;;;;;5.03;3.10;;;12.30;96.10;;;;;;4974595;28;20499;-69
2023/11/16 12:22:16;;;;;;;7.20;3.70;;;12.20;96.10;;;;;;4975752;28;20430;-68
2023/11/16 12:24:45;;;;;;;6.90;3.23;;;12.20;96.10;;;;;;4975158;28;20939;-69
2023/11/16 12:27:17;;;;;;;9.23;3.33;;;12.20;96.20;;;;;;4975051;28;20951;-68
2023/11/16 12:29:58;;;;;;;7.93;3.60;;;12.20;96.30;;;;;;4975526;28;20461;-69
2023/11/16 12:32:25;;;;;;;10.90;5.17;;;12.20;96.40;;;;;;4975373;28;20473;-69
2023/11/16 12:34:54;;;;;;;6.73;4.40;;;12.10;96.30;;;;;;4974916;28;20477;-69
2023/11/16 12:37:21;;;;;;;10.73;4.73;;;12.10;96.40;;;;;;4974772;28;20476;-68
2023/11/16 12:39:50;;;;;;;9.43;4.77;;;12.10;96.40;;;;;;4974988;28;20993;-69
2023/11/16 12:42:35;;;;;;;13.40;5.40;;;12.10;96.40;;;;;;4974243;28;20445;-69
2023/11/16 12:45:02;;;;;;;12.73;4.53;;;12.10;96.50;;;;;;4973981;28;20985;-69
2023/11/16 12:47:31;;;;;;;8.10;4.17;;;12.10;96.60;;;;;;4974734;28;20892;-69
2023/11/16 12:49:58;;;;;;;7.33;4.43;;;12.10;96.50;;;;;;4974916;28;20468;-69
2023/11/16 12:52:27;;;;;;;12.90;4.50;;;12.10;96.60;;;;;;4975013;28;20480;-69
2023/11/16 12:54:56;;;;;;;7.70;4.47;;;12.10;96.60;;;;;;4975405;28;20448;-69
2023/11/16 12:57:23;;;;;;;7.07;4.70;;;12.10;96.60;;;;;;4974738;28;20938;-69